createdAt,value
2023-01-13T00:01:51.898Z,2.65
2023-01-13T00:04:20.971Z,2.08
2023-01-13T00:06:50.019Z,2.95
2023-01-13T00:09:18.985Z,1.73
2023-01-13T00:11:48.911Z,2.42
2023-01-13T00:14:19.267Z,1.42
2023-01-13T00:16:48.275Z,1.50
2023-01-13T00:19:17.315Z,1.40
2023-01-13T00:21:46.357Z,2.45
2023-01-13T00:24:15.570Z,3.42
2023-01-13T00:26:44.629Z,2.30
2023-01-13T00:29:13.749Z,3.35
2023-01-13T00:31:45.224Z,1.88
2023-01-13T00:34:14.298Z,2.13
2023-01-13T00:36:43.409Z,1.88
2023-01-13T00:39:12.558Z,2.55
2023-01-13T00:41:59.146Z,1.63
2023-01-13T00:44:28.831Z,1.55
2023-01-13T00:46:59.252Z,1.42
2023-01-13T00:49:28.377Z,2.03
2023-01-13T00:51:57.621Z,0.68
2023-01-13T00:54:27.010Z,1.08
2023-01-13T00:56:56.038Z,1.85
2023-01-13T00:59:25.426Z,1.33
2023-01-13T01:01:54.616Z,1.55
2023-01-13T01:04:25.358Z,2.28
2023-01-13T01:06:55.112Z,1.13
2023-01-13T01:09:24.140Z,1.27
2023-01-13T01:11:53.997Z,0.82
2023-01-13T01:14:22.947Z,1.00
2023-01-13T01:16:52.395Z,1.40
2023-01-13T01:19:21.753Z,1.30
2023-01-13T01:21:52.276Z,1.73
2023-01-13T01:24:21.408Z,1.02
2023-01-13T01:26:50.903Z,2.03
2023-01-13T01:29:20.120Z,2.15
2023-01-13T01:31:49.177Z,0.77
2023-01-13T01:34:18.270Z,1.30
2023-01-13T01:36:47.494Z,1.33
2023-01-13T01:39:17.842Z,1.50
2023-01-13T01:42:00.799Z,1.80
2023-01-13T01:44:50.610Z,1.45
2023-01-13T01:47:20.219Z,1.23
2023-01-13T01:49:49.694Z,1.58
2023-01-13T01:52:20.367Z,1.27
2023-01-13T01:54:53.801Z,1.40
2023-01-13T01:57:25.812Z,2.47
2023-01-13T01:59:55.292Z,2.95
2023-01-13T02:02:25.066Z,2.25
2023-01-13T02:04:56.894Z,1.88
2023-01-13T02:07:28.153Z,3.42
2023-01-13T02:10:00.897Z,1.50
2023-01-13T02:12:30.351Z,2.35
2023-01-13T02:15:01.887Z,2.55
2023-01-13T02:17:38.027Z,1.27
2023-01-13T02:20:28.526Z,2.28
2023-01-13T02:23:07.821Z,1.85
2023-01-13T02:26:00.444Z,1.75
2023-01-13T02:29:03.300Z,2.58
2023-01-13T02:31:44.329Z,1.05
2023-01-13T02:34:15.832Z,1.70
2023-01-13T02:36:51.121Z,1.83
2023-01-13T02:39:26.505Z,1.38
2023-01-13T02:42:16.701Z,1.50
2023-01-13T02:44:47.720Z,1.17
2023-01-13T02:47:20.324Z,1.67
2023-01-13T02:49:51.656Z,1.73
2023-01-13T02:52:24.221Z,1.15
2023-01-13T02:54:58.313Z,1.50
2023-01-13T02:57:28.217Z,2.13
2023-01-13T02:59:57.971Z,1.65
2023-01-13T03:02:28.378Z,3.17
2023-01-13T03:04:58.524Z,1.67
2023-01-13T03:07:45.177Z,2.72
2023-01-13T03:10:21.056Z,2.88
2023-01-13T03:12:55.629Z,2.25
2023-01-13T03:15:28.425Z,2.15
2023-01-13T03:18:04.053Z,1.95
2023-01-13T03:20:35.094Z,1.60
2023-01-13T03:23:09.049Z,0.90
2023-01-13T03:25:39.229Z,1.90
2023-01-13T03:28:10.546Z,1.52
2023-01-13T03:30:42.303Z,2.42
2023-01-13T03:33:16.853Z,1.67
2023-01-13T03:35:47.306Z,1.25
2023-01-13T03:38:19.322Z,1.40
2023-01-13T03:40:51.957Z,3.08
2023-01-13T03:43:41.376Z,1.60
2023-01-13T03:46:12.756Z,1.80
2023-01-13T03:48:45.067Z,1.52
2023-01-13T03:51:17.852Z,1.55
2023-01-13T03:53:49.892Z,1.73
2023-01-13T03:58:50.162Z,1.27
2023-01-13T04:01:20.899Z,2.95
2023-01-13T04:03:54.492Z,2.08
2023-01-13T04:06:27.012Z,1.13
2023-01-13T04:08:59.425Z,1.85
2023-01-13T04:11:31.560Z,2.25
2023-01-13T04:14:01.714Z,2.22
2023-01-13T04:16:31.278Z,2.10
2023-01-13T04:19:02.047Z,2.13
2023-01-13T04:21:31.511Z,3.13
2023-01-13T04:24:00.558Z,2.40
2023-01-13T04:26:29.614Z,1.83
2023-01-13T04:28:58.901Z,1.88
2023-01-13T04:31:28.123Z,2.85
2023-01-13T04:33:57.160Z,1.50
2023-01-13T04:36:27.776Z,1.77
2023-01-13T04:38:57.212Z,2.33
2023-01-13T04:41:26.485Z,1.85
2023-01-13T04:43:55.444Z,2.83
2023-01-13T04:46:24.884Z,2.53
2023-01-13T04:48:53.903Z,1.55
2023-01-13T04:51:23.137Z,1.95
2023-01-13T04:53:53.556Z,2.03
2023-01-13T04:56:22.568Z,1.98
2023-01-13T04:58:51.477Z,3.20
2023-01-13T05:01:21.473Z,1.80
2023-01-13T05:03:50.545Z,2.75
2023-01-13T05:06:19.664Z,1.95
2023-01-13T05:08:48.643Z,3.55
2023-01-13T05:11:36.666Z,1.95
2023-01-13T05:14:23.651Z,1.60
2023-01-13T05:17:03.489Z,2.63
2023-01-13T05:19:33.706Z,1.63
2023-01-13T05:22:21.915Z,1.77
2023-01-13T05:25:08.810Z,1.95
2023-01-13T05:27:39.707Z,1.55
2023-01-13T05:30:09.413Z,2.22
2023-01-13T05:32:38.384Z,2.70
2023-01-13T05:35:07.681Z,2.50
2023-01-13T05:37:36.967Z,1.15
2023-01-13T05:40:24.380Z,2.17
2023-01-13T05:43:22.959Z,2.67
2023-01-13T05:45:53.483Z,2.13
2023-01-13T05:48:24.044Z,2.60
2023-01-13T05:50:53.917Z,3.05
2023-01-13T05:53:23.446Z,1.33
2023-01-13T05:55:52.872Z,1.60
2023-01-13T05:58:24.426Z,1.98
2023-01-13T06:00:53.813Z,1.90
2023-01-13T06:03:23.846Z,0.80
2023-01-13T06:05:58.563Z,2.40
2023-01-13T06:08:28.032Z,1.52
2023-01-13T06:10:57.119Z,1.52
2023-01-13T06:13:27.630Z,1.75
2023-01-13T06:15:58.692Z,1.63
2023-01-13T06:18:28.326Z,1.30
2023-01-13T06:20:57.471Z,1.45
2023-01-13T06:23:26.927Z,2.10
2023-01-13T06:26:01.575Z,2.33
2023-01-13T06:28:33.315Z,2.17
2023-01-13T06:31:08.262Z,2.30
2023-01-13T06:33:39.994Z,1.70
2023-01-13T06:36:12.235Z,1.88
2023-01-13T06:38:43.237Z,2.15
2023-01-13T06:41:13.522Z,2.13
2023-01-13T06:43:42.912Z,1.70
2023-01-13T06:46:11.843Z,1.58
2023-01-13T06:48:40.924Z,2.15
2023-01-13T06:51:09.938Z,1.65
2023-01-13T06:53:39.017Z,1.65
2023-01-13T06:56:08.381Z,1.45
2023-01-13T06:58:37.315Z,3.03
2023-01-13T07:01:08.111Z,1.70
2023-01-13T07:03:37.614Z,1.67
2023-01-13T07:06:06.739Z,1.67
2023-01-13T07:08:35.848Z,1.13
2023-01-13T07:11:05.045Z,1.83
2023-01-13T07:14:02.991Z,1.98
2023-01-13T07:16:33.452Z,1.85
2023-01-13T07:19:02.480Z,1.45
2023-01-13T07:21:31.473Z,1.50
2023-01-13T07:24:00.595Z,3.00
2023-01-13T07:26:32.312Z,2.03
2023-01-13T07:29:01.530Z,2.58
2023-01-13T07:31:31.026Z,2.10
2023-01-13T07:34:01.586Z,1.38
2023-01-13T07:36:30.742Z,2.55
2023-01-13T07:39:00.139Z,2.63
2023-01-13T07:41:46.969Z,1.92
2023-01-13T07:44:16.038Z,2.65
2023-01-13T07:46:45.074Z,2.20
2023-01-13T07:49:15.701Z,3.45
2023-01-13T07:51:44.785Z,1.98
2023-01-13T07:54:13.880Z,3.03
2023-01-13T07:56:42.974Z,2.05
2023-01-13T07:59:12.087Z,2.40
2023-01-13T08:01:41.325Z,2.35
2023-01-13T08:04:10.458Z,2.45
2023-01-13T08:06:43.459Z,2.40
2023-01-13T08:09:12.453Z,1.83
2023-01-13T08:11:41.485Z,4.60
2023-01-13T08:14:10.546Z,3.15
2023-01-13T08:16:39.894Z,1.70
2023-01-13T08:19:09.375Z,1.85
2023-01-13T08:21:38.666Z,2.55
2023-01-13T08:24:11.975Z,2.33
2023-01-13T08:26:40.994Z,2.28
2023-01-13T08:29:11.944Z,1.63
2023-01-13T08:31:47.283Z,2.00
2023-01-13T08:34:16.514Z,1.90
2023-01-13T08:36:45.756Z,1.85
2023-01-13T08:39:16.325Z,1.80
2023-01-13T08:41:58.624Z,1.77
2023-01-13T08:44:28.874Z,1.98
2023-01-13T08:46:58.415Z,1.80
2023-01-13T08:49:27.854Z,3.28
2023-01-13T08:51:56.922Z,4.07
2023-01-13T08:54:27.426Z,1.73
2023-01-13T08:56:56.787Z,3.40
2023-01-13T08:59:26.081Z,2.78
2023-01-13T09:01:55.462Z,1.90
2023-01-13T09:04:26.032Z,2.63
2023-01-13T09:06:56.008Z,2.47
2023-01-13T09:09:27.633Z,1.58
2023-01-13T09:12:16.018Z,2.83
2023-01-13T09:14:45.587Z,2.10
2023-01-13T09:17:15.036Z,4.68
2023-01-13T09:19:44.589Z,2.28
2023-01-13T09:22:16.543Z,2.03
2023-01-13T09:24:46.457Z,2.05
2023-01-13T09:27:17.502Z,2.85
2023-01-13T09:29:46.875Z,2.30
2023-01-13T09:32:17.052Z,2.33
2023-01-13T09:35:00.540Z,2.33
2023-01-13T09:37:30.666Z,1.83
2023-01-13T09:40:00.041Z,2.08
2023-01-13T09:42:52.746Z,3.13
2023-01-13T09:45:24.691Z,1.25
2023-01-13T09:48:00.207Z,1.63
2023-01-13T09:50:36.415Z,1.88
2023-01-13T09:53:07.159Z,1.23
2023-01-13T09:55:37.921Z,2.67
2023-01-13T09:58:16.600Z,1.52
2023-01-13T10:00:47.561Z,1.80
2023-01-13T10:03:21.311Z,1.50
2023-01-13T10:05:56.615Z,1.42
2023-01-13T10:08:27.826Z,1.25
2023-01-13T10:10:57.936Z,1.13
2023-01-13T10:13:31.335Z,1.25
2023-01-13T10:16:08.222Z,1.10
2023-01-13T10:18:43.508Z,1.42
2023-01-13T10:21:19.746Z,1.10
2023-01-13T10:23:56.012Z,1.73
2023-01-13T10:26:34.317Z,1.45
2023-01-13T10:29:05.069Z,1.00
2023-01-13T10:31:34.171Z,1.45
2023-01-13T10:34:07.519Z,1.55
2023-01-13T10:37:00.791Z,1.17
2023-01-13T10:39:30.688Z,1.27
2023-01-13T10:42:04.257Z,1.67
2023-01-13T10:44:47.950Z,1.52
2023-01-13T10:47:24.166Z,1.40
2023-01-13T10:50:09.624Z,2.15
2023-01-13T10:52:42.937Z,1.52
2023-01-13T10:55:27.273Z,1.20
2023-01-13T10:57:56.629Z,1.00
2023-01-13T11:00:31.067Z,1.38
2023-01-13T11:03:24.081Z,1.85
2023-01-13T11:05:56.724Z,1.25
2023-01-13T11:08:27.299Z,1.48
2023-01-13T11:10:57.147Z,2.47
2023-01-13T11:13:28.994Z,1.30
2023-01-13T11:18:32.898Z,1.85
2023-01-13T11:21:02.321Z,1.25
2023-01-13T11:23:33.714Z,2.22
2023-01-13T11:26:04.696Z,1.15
2023-01-13T11:28:41.243Z,1.25
2023-01-13T11:31:13.048Z,2.30
2023-01-13T11:33:46.967Z,1.98
2023-01-13T11:36:20.615Z,1.00
2023-01-13T11:38:51.802Z,1.55
2023-01-13T11:41:42.194Z,1.73
2023-01-13T11:44:21.088Z,2.53
2023-01-13T11:46:50.718Z,1.30
2023-01-13T11:49:24.825Z,0.90
2023-01-13T11:51:56.616Z,1.23
2023-01-13T11:54:34.257Z,1.63
2023-01-13T11:57:08.831Z,1.80
2023-01-13T11:59:49.852Z,1.42
2023-01-13T12:02:25.706Z,3.65
2023-01-13T12:05:02.724Z,2.03
2023-01-13T12:07:38.247Z,1.67
2023-01-13T12:10:13.234Z,1.77
2023-01-13T12:12:49.621Z,1.50
2023-01-13T12:15:29.909Z,1.30
2023-01-13T12:18:10.860Z,0.90
2023-01-13T12:20:45.542Z,1.30
2023-01-13T12:23:23.435Z,1.88
2023-01-13T12:25:56.171Z,1.95
2023-01-13T12:28:28.825Z,1.52
2023-01-13T12:31:01.143Z,1.60
2023-01-13T12:33:46.295Z,1.13
2023-01-13T12:36:20.430Z,1.30
2023-01-13T12:38:50.733Z,1.77
2023-01-13T12:41:29.529Z,4.18
2023-01-13T12:44:16.929Z,2.92
2023-01-13T12:46:56.143Z,1.00
2023-01-13T12:49:26.422Z,1.42
2023-01-13T12:52:18.434Z,1.40
2023-01-13T12:55:11.088Z,1.10
2023-01-13T12:57:40.710Z,2.05
2023-01-13T13:00:19.492Z,1.10
2023-01-13T13:03:03.588Z,1.48
2023-01-13T13:05:41.742Z,1.20
2023-01-13T13:08:17.818Z,2.35
2023-01-13T13:10:49.603Z,1.10
2023-01-13T13:13:23.015Z,1.33
2023-01-13T13:15:52.890Z,1.25
2023-01-13T13:18:29.035Z,1.67
2023-01-13T13:21:00.732Z,1.15
2023-01-13T13:23:39.350Z,1.00
2023-01-13T13:26:17.380Z,1.13
2023-01-13T13:28:50.516Z,1.02
2023-01-13T13:31:28.338Z,1.35
2023-01-13T13:34:08.106Z,1.30
2023-01-13T13:36:47.760Z,1.02
2023-01-13T13:39:41.176Z,1.00
2023-01-13T13:42:49.747Z,1.95
2023-01-13T13:45:40.352Z,2.03
2023-01-13T13:48:23.892Z,0.90
2023-01-13T13:50:57.040Z,1.95
2023-01-13T13:53:27.909Z,1.20
2023-01-13T13:56:00.776Z,2.00
2023-01-13T13:58:30.878Z,0.95
2023-01-13T14:01:00.403Z,1.00
2023-01-13T14:03:31.855Z,1.88
2023-01-13T14:06:02.821Z,2.38
2023-01-13T14:08:32.963Z,1.55
2023-01-13T14:11:04.120Z,1.20
2023-01-13T14:13:33.829Z,2.10
2023-01-13T14:16:03.981Z,2.17
2023-01-13T14:18:34.900Z,1.58
2023-01-13T14:21:05.851Z,1.67
2023-01-13T14:23:35.819Z,1.10
2023-01-13T14:26:13.015Z,1.23
2023-01-13T14:28:42.872Z,1.15
2023-01-13T14:31:12.638Z,1.88
2023-01-13T14:33:46.824Z,1.05
2023-01-13T14:36:19.063Z,0.90
2023-01-13T14:38:49.639Z,1.13
2023-01-13T14:41:23.226Z,1.88
2023-01-13T14:43:57.914Z,1.00
2023-01-13T14:46:27.874Z,1.00
2023-01-13T14:49:01.859Z,1.85
2023-01-13T14:51:32.255Z,2.22
2023-01-13T14:54:07.335Z,1.63
2023-01-13T14:56:42.750Z,1.00
2023-01-13T14:59:30.637Z,1.38
2023-01-13T15:02:00.147Z,1.15
2023-01-13T15:04:33.269Z,0.90
2023-01-13T15:07:03.230Z,1.42
2023-01-13T15:09:38.851Z,1.00
2023-01-13T15:12:23.509Z,1.08
2023-01-13T15:14:55.271Z,0.75
2023-01-13T15:17:24.674Z,0.73
2023-01-13T15:19:55.246Z,1.42
2023-01-13T15:22:24.314Z,1.20
2023-01-13T15:24:53.291Z,1.52
2023-01-13T15:27:26.881Z,1.25
2023-01-13T15:29:56.016Z,1.58
2023-01-13T15:32:25.112Z,0.80
2023-01-13T15:34:54.216Z,2.95
2023-01-13T15:37:25.691Z,1.10
2023-01-13T15:39:55.059Z,1.00
2023-01-13T15:42:43.570Z,1.23
2023-01-13T15:45:33.949Z,1.27
2023-01-13T15:48:04.055Z,1.17
2023-01-13T15:50:33.219Z,1.33
2023-01-13T15:53:03.506Z,2.00
2023-01-13T15:55:34.458Z,1.67
2023-01-13T15:58:05.417Z,1.67
2023-01-13T16:00:34.629Z,1.02
2023-01-13T16:03:04.311Z,1.50
2023-01-13T16:05:33.630Z,2.58
2023-01-13T16:08:04.673Z,2.25
2023-01-13T16:10:33.936Z,1.67
2023-01-13T16:13:03.015Z,1.33
2023-01-13T16:15:34.371Z,2.05
2023-01-13T16:18:03.798Z,1.80
2023-01-13T16:20:33.148Z,1.48
2023-01-13T16:23:02.435Z,2.55
2023-01-13T16:25:31.645Z,1.83
2023-01-13T16:28:05.578Z,1.52
2023-01-13T16:30:37.708Z,2.45
2023-01-13T16:33:06.795Z,1.88
2023-01-13T16:35:35.794Z,2.85
2023-01-13T16:38:24.826Z,1.58
2023-01-13T16:40:53.916Z,1.95
2023-01-13T16:43:23.058Z,1.80
2023-01-13T16:45:53.594Z,1.42
2023-01-13T16:48:22.843Z,2.22
2023-01-13T16:50:51.810Z,2.92
2023-01-13T16:53:23.558Z,1.98
2023-01-13T16:55:52.907Z,1.45
2023-01-13T16:58:23.456Z,2.05
2023-01-13T17:00:54.053Z,2.13
2023-01-13T17:03:23.985Z,1.92
2023-01-13T17:05:52.988Z,1.40
2023-01-13T17:08:22.121Z,1.85
2023-01-13T17:10:52.560Z,1.70
2023-01-13T17:13:22.306Z,1.65
2023-01-13T17:15:51.306Z,2.13
2023-01-13T17:18:22.023Z,2.60
2023-01-13T17:20:51.018Z,1.65
2023-01-13T17:23:20.077Z,2.28
2023-01-13T17:25:49.231Z,2.15
2023-01-13T17:28:18.485Z,1.98
2023-01-13T17:30:48.018Z,2.08
2023-01-13T17:33:17.162Z,2.80
2023-01-13T17:35:47.946Z,2.42
2023-01-13T17:38:17.573Z,3.40
2023-01-13T17:40:47.204Z,1.90
2023-01-13T17:43:16.604Z,2.45
2023-01-13T17:45:45.724Z,2.33
2023-01-13T17:48:15.294Z,3.20
2023-01-13T17:50:50.195Z,2.08
2023-01-13T17:53:19.589Z,1.70
2023-01-13T17:55:52.191Z,1.67
2023-01-13T17:58:21.619Z,2.42
2023-01-13T18:00:50.871Z,1.73
2023-01-13T18:03:20.467Z,1.50
2023-01-13T18:05:51.128Z,2.20
2023-01-13T18:08:21.676Z,2.05
2023-01-13T18:10:53.428Z,2.95
2023-01-13T18:13:22.577Z,2.47
2023-01-13T18:15:51.661Z,2.30
2023-01-13T18:18:20.769Z,2.17
2023-01-13T18:21:09.364Z,3.50
2023-01-13T18:24:11.018Z,1.80
2023-01-13T18:26:58.041Z,2.15
2023-01-13T18:29:27.395Z,1.60
2023-01-13T18:31:56.886Z,3.40
2023-01-13T18:34:26.798Z,2.40
2023-01-13T18:36:57.425Z,3.85
2023-01-13T18:39:26.571Z,2.10
2023-01-13T18:42:13.238Z,1.30
2023-01-13T18:44:42.383Z,2.05
2023-01-13T18:47:12.011Z,2.60
2023-01-13T18:49:41.315Z,1.60
2023-01-13T18:52:15.059Z,2.83
2023-01-13T18:54:44.358Z,2.35
2023-01-13T18:57:13.829Z,1.83
2023-01-13T18:59:45.536Z,2.00
2023-01-13T19:02:15.999Z,2.10
2023-01-13T19:04:45.434Z,3.08
2023-01-13T19:07:22.320Z,2.03
2023-01-13T19:09:51.727Z,2.33
2023-01-13T19:12:26.152Z,2.65
2023-01-13T19:14:55.693Z,2.80
2023-01-13T19:17:25.288Z,2.35
2023-01-13T19:19:55.312Z,1.73
2023-01-13T19:22:28.564Z,2.75
2023-01-13T19:24:58.090Z,3.30
2023-01-13T19:27:29.357Z,2.45
2023-01-13T19:30:01.789Z,2.28
2023-01-13T19:32:34.307Z,2.33
2023-01-13T19:35:03.458Z,2.25
2023-01-13T19:37:34.359Z,2.03
2023-01-13T19:40:09.168Z,2.67
2023-01-13T19:42:56.449Z,2.30
2023-01-13T19:45:30.648Z,2.45
2023-01-13T19:48:04.984Z,2.83
2023-01-13T19:50:37.499Z,1.98
2023-01-13T19:53:08.782Z,2.53
2023-01-13T19:55:38.460Z,3.78
2023-01-13T19:58:09.410Z,2.67
2023-01-13T20:00:46.744Z,1.73
2023-01-13T20:03:18.004Z,2.47
2023-01-13T20:05:47.721Z,1.98
2023-01-13T20:08:18.446Z,2.03
2023-01-13T20:10:47.591Z,2.45
2023-01-13T20:13:17.013Z,2.40
2023-01-13T20:15:50.481Z,2.03
2023-01-13T20:18:19.739Z,1.83
2023-01-13T20:20:49.013Z,2.05
2023-01-13T20:23:19.678Z,2.75
2023-01-13T20:25:49.070Z,3.28
2023-01-13T20:28:19.950Z,2.70
2023-01-13T20:30:49.869Z,3.42
2023-01-13T20:33:19.007Z,2.25
2023-01-13T20:35:51.365Z,2.30
2023-01-13T20:38:26.275Z,2.70
2023-01-13T20:41:01.569Z,2.53
2023-01-13T20:43:29.959Z,2.63
2023-01-13T20:45:59.263Z,3.60
2023-01-13T20:48:28.434Z,3.03
2023-01-13T20:50:59.099Z,1.92
2023-01-13T20:53:29.934Z,2.22
2023-01-13T20:55:59.244Z,2.17
2023-01-13T20:58:28.421Z,2.10
2023-01-13T21:01:00.041Z,2.17
2023-01-13T21:03:29.595Z,2.67
2023-01-13T21:05:59.363Z,3.30
2023-01-13T21:08:30.908Z,2.80
2023-01-13T21:11:04.740Z,2.58
2023-01-13T21:13:54.511Z,4.43
2023-01-13T21:16:24.047Z,3.08
2023-01-13T21:19:07.561Z,3.28
2023-01-13T21:21:36.809Z,2.45
2023-01-13T21:24:07.609Z,2.95
2023-01-13T21:26:37.206Z,3.15
2023-01-13T21:29:06.772Z,5.13
2023-01-13T21:31:36.503Z,4.38
2023-01-13T21:34:06.091Z,5.05
2023-01-13T21:36:35.191Z,9.20
2023-01-13T21:39:08.032Z,8.63
2023-01-13T21:41:55.374Z,7.78
2023-01-13T21:44:42.452Z,7.35
2023-01-13T21:47:33.349Z,5.18
2023-01-13T21:50:02.612Z,5.95
2023-01-13T21:52:31.997Z,4.72
2023-01-13T21:55:20.379Z,4.05
2023-01-13T21:57:50.303Z,2.70
2023-01-13T22:00:21.189Z,3.80
2023-01-13T22:02:50.597Z,2.70
2023-01-13T22:05:21.049Z,3.63
2023-01-13T22:07:50.272Z,2.90
2023-01-13T22:10:22.283Z,3.78
2023-01-13T22:12:54.259Z,4.13
2023-01-13T22:15:26.818Z,3.33
2023-01-13T22:17:56.425Z,3.42
2023-01-13T22:20:25.669Z,3.28
2023-01-13T22:22:54.681Z,3.50
2023-01-13T22:25:25.289Z,3.53
2023-01-13T22:28:03.484Z,2.88
2023-01-13T22:30:33.229Z,5.38
2023-01-13T22:33:02.311Z,3.03
2023-01-13T22:35:31.353Z,5.55
2023-01-13T22:38:00.563Z,2.92
2023-01-13T22:40:31.349Z,3.42
2023-01-13T22:43:00.425Z,4.13
2023-01-13T22:45:29.453Z,4.35
2023-01-13T22:47:59.980Z,3.72
2023-01-13T22:50:29.112Z,2.75
2023-01-13T22:52:58.144Z,3.78
2023-01-13T22:55:27.209Z,4.30
2023-01-13T22:57:58.883Z,4.10
2023-01-13T23:00:28.020Z,2.65
2023-01-13T23:02:56.959Z,2.70
2023-01-13T23:05:29.178Z,3.40
2023-01-13T23:07:59.642Z,2.90
2023-01-13T23:10:28.869Z,2.65
2023-01-13T23:12:59.371Z,3.28
2023-01-13T23:15:28.516Z,2.50
2023-01-13T23:17:57.592Z,3.97
2023-01-13T23:20:26.785Z,2.83
2023-01-13T23:22:55.875Z,2.60
2023-01-13T23:25:24.964Z,2.53
2023-01-13T23:27:55.649Z,2.60
2023-01-13T23:30:26.118Z,3.63
2023-01-13T23:32:57.237Z,3.30
2023-01-13T23:35:26.516Z,2.78
2023-01-13T23:37:55.705Z,4.13
2023-01-13T23:40:27.527Z,3.50
2023-01-13T23:42:56.590Z,2.33
2023-01-13T23:45:27.188Z,2.50
2023-01-13T23:47:56.354Z,4.63
2023-01-13T23:50:27.715Z,2.92
2023-01-13T23:52:56.743Z,3.30
2023-01-13T23:55:26.089Z,3.80
2023-01-13T23:57:55.847Z,2.97
